createdAt,value
2022-10-21T00:01:44.856Z,12.06
2022-10-21T00:04:13.691Z,12.14
2022-10-21T00:06:42.054Z,11.85
2022-10-21T00:09:10.679Z,12.07
2022-10-21T00:11:39.139Z,12.06
2022-10-21T00:14:07.652Z,11.92
2022-10-21T00:16:38.195Z,12.09
2022-10-21T00:19:06.507Z,12.12
2022-10-21T00:21:36.977Z,12.15
2022-10-21T00:24:05.843Z,12.16
2022-10-21T00:26:37.655Z,12.28
2022-10-21T00:29:07.406Z,12.00
2022-10-21T00:31:37.271Z,12.24
2022-10-21T00:34:05.675Z,12.23
2022-10-21T00:36:34.221Z,11.70
2022-10-21T00:39:02.580Z,12.26
2022-10-21T00:41:31.092Z,12.16
2022-10-21T00:44:02.300Z,12.13
2022-10-21T00:46:45.056Z,11.95
2022-10-21T00:49:19.820Z,12.05
2022-10-21T00:51:51.463Z,12.11
2022-10-21T00:54:22.080Z,12.05
2022-10-21T00:56:52.737Z,11.55
2022-10-21T00:59:22.123Z,12.11
2022-10-21T01:01:52.361Z,12.13
2022-10-21T01:04:20.682Z,12.06
2022-10-21T01:06:49.468Z,12.06
2022-10-21T01:09:18.997Z,12.02
2022-10-21T01:11:49.532Z,11.35
2022-10-21T01:14:44.627Z,11.86
2022-10-21T01:17:43.669Z,11.96
2022-10-21T01:20:47.600Z,11.91
2022-10-21T01:23:32.074Z,11.86
2022-10-21T01:26:33.656Z,11.77
2022-10-21T01:29:27.356Z,11.73
2022-10-21T01:32:04.231Z,11.66
2022-10-21T01:34:42.055Z,11.61
2022-10-21T01:37:18.209Z,11.68
2022-10-21T01:39:53.087Z,11.70
2022-10-21T01:42:29.707Z,11.62
2022-10-21T01:45:04.855Z,11.44
2022-10-21T01:47:38.642Z,11.56
2022-10-21T01:50:10.592Z,11.51
2022-10-21T01:52:40.098Z,11.27
2022-10-21T01:55:13.664Z,11.58
2022-10-21T01:57:47.772Z,11.60
2022-10-21T02:00:16.252Z,11.64
2022-10-21T02:02:48.935Z,11.62
2022-10-21T02:05:23.491Z,11.64
2022-10-21T02:07:52.256Z,11.65
2022-10-21T02:10:21.538Z,11.69
2022-10-21T02:12:52.074Z,11.68
2022-10-21T02:15:23.228Z,11.83
2022-10-21T02:20:46.272Z,11.82
2022-10-21T02:23:18.871Z,11.86
2022-10-21T02:25:50.219Z,11.99
2022-10-21T02:28:19.459Z,11.90
2022-10-21T02:30:59.530Z,12.09
2022-10-21T02:33:43.042Z,12.05
2022-10-21T02:36:15.801Z,12.02
2022-10-21T02:38:49.599Z,11.91
2022-10-21T02:41:20.262Z,11.85
2022-10-21T02:43:52.338Z,11.77
2022-10-21T02:46:20.924Z,11.80
2022-10-21T02:48:50.822Z,11.76
2022-10-21T02:51:19.299Z,11.74
2022-10-21T02:53:47.671Z,11.84
2022-10-21T02:56:16.118Z,11.75
2022-10-21T02:58:44.527Z,11.49
2022-10-21T03:01:13.185Z,11.29
2022-10-21T03:03:41.684Z,11.76
2022-10-21T03:06:11.532Z,11.75
2022-10-21T03:08:40.110Z,11.80
2022-10-21T03:11:08.460Z,11.82
2022-10-21T03:13:36.907Z,11.95
2022-10-21T03:16:05.661Z,11.83
2022-10-21T03:18:33.987Z,11.97
2022-10-21T03:21:02.313Z,11.93
2022-10-21T03:23:32.231Z,11.85
2022-10-21T03:26:00.587Z,11.85
2022-10-21T03:28:30.589Z,11.66
2022-10-21T03:30:59.134Z,11.75
2022-10-21T03:33:27.458Z,11.67
2022-10-21T03:35:55.852Z,11.65
2022-10-21T03:38:24.359Z,11.52
2022-10-21T03:40:54.342Z,11.58
2022-10-21T03:43:22.703Z,11.55
2022-10-21T03:45:51.156Z,11.56
2022-10-21T03:48:20.053Z,11.58
2022-10-21T03:50:48.434Z,11.59
2022-10-21T03:53:30.805Z,11.66
2022-10-21T03:56:07.566Z,11.60
2022-10-21T03:58:35.962Z,11.59
2022-10-21T04:01:04.678Z,11.67
2022-10-21T04:03:33.042Z,11.70
2022-10-21T04:06:01.459Z,11.62
2022-10-21T04:08:29.861Z,11.59
2022-10-21T04:10:59.049Z,11.37
2022-10-21T04:13:28.887Z,11.10
2022-10-21T04:16:00.204Z,11.47
2022-10-21T04:18:29.023Z,11.26
2022-10-21T04:20:57.616Z,11.47
2022-10-21T04:23:26.013Z,11.46
2022-10-21T04:25:54.301Z,11.59
2022-10-21T04:28:22.782Z,11.62
2022-10-21T04:30:52.708Z,11.65
2022-10-21T04:33:21.147Z,11.78
2022-10-21T04:35:49.944Z,11.69
2022-10-21T04:38:18.496Z,11.34
2022-10-21T04:40:46.963Z,11.83
2022-10-21T04:43:15.333Z,11.52
2022-10-21T04:45:43.737Z,11.82
2022-10-21T04:48:14.092Z,11.82
2022-10-21T04:50:42.758Z,11.83
2022-10-21T04:53:11.165Z,11.42
2022-10-21T04:55:40.951Z,11.44
2022-10-21T04:58:09.444Z,11.53
2022-10-21T05:00:37.928Z,11.27
2022-10-21T05:03:06.239Z,11.15
2022-10-21T05:05:36.079Z,11.61
2022-10-21T05:08:07.013Z,11.57
2022-10-21T05:10:39.099Z,11.58
2022-10-21T05:13:07.549Z,11.57
2022-10-21T05:15:36.031Z,11.59
2022-10-21T05:18:04.629Z,11.41
2022-10-21T05:20:32.987Z,11.59
2022-10-21T05:23:04.027Z,11.41
2022-10-21T05:25:34.328Z,11.25
2022-10-21T05:28:03.089Z,11.46
2022-10-21T05:30:31.539Z,11.52
2022-10-21T05:33:00.143Z,11.53
2022-10-21T05:35:28.587Z,11.50
2022-10-21T05:37:56.907Z,11.45
2022-10-21T05:40:26.798Z,11.36
2022-10-21T05:42:55.258Z,11.37
2022-10-21T05:45:23.712Z,11.42
2022-10-21T05:47:52.111Z,11.34
2022-10-21T05:50:20.704Z,11.06
2022-10-21T05:52:49.026Z,11.48
2022-10-21T05:55:17.579Z,11.40
2022-10-21T05:57:47.392Z,11.11
2022-10-21T06:00:16.126Z,11.53
2022-10-21T06:02:44.551Z,11.41
2022-10-21T06:05:13.396Z,11.38
2022-10-21T06:07:41.880Z,11.49
2022-10-21T06:10:12.742Z,11.24
2022-10-21T06:12:41.311Z,11.23
2022-10-21T06:15:12.035Z,11.24
2022-10-21T06:17:41.027Z,11.25
2022-10-21T06:20:10.258Z,11.17
2022-10-21T06:22:38.648Z,11.23
2022-10-21T06:25:07.351Z,11.23
2022-10-21T06:27:36.034Z,11.29
2022-10-21T06:30:04.849Z,11.34
2022-10-21T06:32:36.195Z,11.32
2022-10-21T06:35:04.766Z,11.26
2022-10-21T06:37:33.243Z,11.25
2022-10-21T06:40:01.650Z,11.28
2022-10-21T06:42:30.016Z,11.41
2022-10-21T06:45:00.252Z,11.03
2022-10-21T06:47:29.073Z,11.27
2022-10-21T06:50:03.132Z,10.61
2022-10-21T06:52:32.311Z,11.26
2022-10-21T06:55:00.654Z,11.28
2022-10-21T06:57:29.097Z,11.34
2022-10-21T06:59:57.515Z,11.25
2022-10-21T07:02:25.992Z,11.22
2022-10-21T07:04:54.299Z,11.40
2022-10-21T07:07:24.184Z,11.36
2022-10-21T07:09:52.641Z,11.54
2022-10-21T07:12:21.139Z,11.60
2022-10-21T07:14:50.186Z,11.48
2022-10-21T07:17:18.753Z,11.54
2022-10-21T07:19:47.114Z,11.72
2022-10-21T07:22:15.637Z,11.54
2022-10-21T07:24:45.647Z,11.23
2022-10-21T07:27:13.971Z,11.51
2022-10-21T07:29:42.563Z,11.63
2022-10-21T07:32:11.063Z,11.70
2022-10-21T07:34:39.442Z,11.78
2022-10-21T07:37:07.791Z,11.81
2022-10-21T07:39:36.324Z,11.90
2022-10-21T07:42:06.163Z,12.02
2022-10-21T07:44:34.492Z,11.75
2022-10-21T07:47:02.971Z,12.10
2022-10-21T07:49:31.475Z,12.11
2022-10-21T07:51:59.859Z,12.27
2022-10-21T07:54:28.355Z,12.29
2022-10-21T07:56:56.884Z,12.12
2022-10-21T07:59:26.744Z,12.06
2022-10-21T08:01:55.111Z,12.68
2022-10-21T08:04:29.973Z,12.49
2022-10-21T08:06:58.959Z,12.53
2022-10-21T08:10:37.224Z,12.55
2022-10-21T08:13:05.707Z,12.52
2022-10-21T08:15:35.603Z,12.58
2022-10-21T08:18:03.975Z,12.57
2022-10-21T08:20:32.342Z,12.52
2022-10-21T08:23:00.732Z,12.23
2022-10-21T08:25:30.270Z,12.43
2022-10-21T08:27:58.620Z,12.49
2022-10-21T08:30:30.006Z,12.58
2022-10-21T08:33:00.981Z,12.61
2022-10-21T08:35:30.322Z,12.51
2022-10-21T08:37:58.932Z,12.72
2022-10-21T08:40:31.436Z,12.75
2022-10-21T08:43:09.375Z,12.07
2022-10-21T08:45:43.839Z,12.74
2022-10-21T08:48:18.251Z,12.75
2022-10-21T08:50:50.104Z,12.98
2022-10-21T08:53:23.916Z,12.82
2022-10-21T08:55:58.973Z,13.00
2022-10-21T08:58:27.708Z,13.02
2022-10-21T09:01:00.283Z,13.07
2022-10-21T09:03:40.024Z,13.22
2022-10-21T09:06:22.837Z,13.16
2022-10-21T09:09:14.775Z,13.29
2022-10-21T09:11:59.647Z,13.30
2022-10-21T09:15:08.822Z,13.19
2022-10-21T09:17:57.472Z,13.30
2022-10-21T09:20:43.280Z,13.23
2022-10-21T09:26:15.743Z,13.02
2022-10-21T09:28:45.032Z,13.11
2022-10-21T09:31:18.727Z,13.12
2022-10-21T09:33:50.271Z,13.27
2022-10-21T09:36:26.107Z,13.31
2022-10-21T09:39:00.185Z,13.41
2022-10-21T09:41:34.112Z,13.39
2022-10-21T09:44:02.576Z,12.13
2022-10-21T09:46:31.451Z,13.19
2022-10-21T09:49:29.216Z,13.34
2022-10-21T09:51:51.006Z,13.06
2022-10-21T09:54:23.776Z,13.41
2022-10-21T09:56:58.591Z,13.51
2022-10-21T09:59:32.709Z,13.44
2022-10-21T10:02:08.413Z,12.67
2022-10-21T10:04:37.660Z,13.11
2022-10-21T10:07:28.011Z,13.26
2022-10-21T10:09:56.416Z,13.09
2022-10-21T10:12:26.358Z,13.29
2022-10-21T10:14:55.815Z,13.30
2022-10-21T10:17:30.241Z,13.11
2022-10-21T10:20:25.945Z,13.02
2022-10-21T10:23:19.377Z,13.06
2022-10-21T10:25:52.799Z,12.84
2022-10-21T10:28:26.195Z,13.10
2022-10-21T10:30:57.520Z,13.11
2022-10-21T10:33:29.681Z,12.92
2022-10-21T10:36:00.320Z,13.12
2022-10-21T10:38:33.126Z,13.06
2022-10-21T10:41:12.531Z,13.16
2022-10-21T10:43:47.083Z,13.00
2022-10-21T10:46:25.771Z,13.09
2022-10-21T10:48:55.707Z,13.19
2022-10-21T10:51:30.543Z,13.00
2022-10-21T10:54:17.876Z,13.03
2022-10-21T10:56:54.695Z,13.10
2022-10-21T10:59:32.069Z,13.10
2022-10-21T11:02:17.819Z,12.66
2022-10-21T11:05:00.322Z,13.04
2022-10-21T11:07:34.529Z,12.83
2022-10-21T11:10:08.717Z,12.90
2022-10-21T11:12:37.255Z,13.17
2022-10-21T11:15:08.532Z,13.17
2022-10-21T11:17:41.308Z,12.99
2022-10-21T11:20:18.096Z,13.24
2022-10-21T11:22:55.562Z,13.28
2022-10-21T11:25:35.066Z,13.33
2022-10-21T11:28:17.199Z,13.35
2022-10-21T11:31:01.544Z,13.38
2022-10-21T11:33:40.259Z,13.36
2022-10-21T11:36:17.632Z,13.41
2022-10-21T11:39:04.768Z,13.44
2022-10-21T11:41:39.371Z,13.46
2022-10-21T11:44:17.736Z,13.51
2022-10-21T11:46:57.227Z,13.40
2022-10-21T11:49:41.755Z,13.57
2022-10-21T11:52:21.156Z,13.66
2022-10-21T11:55:12.451Z,13.68
2022-10-21T11:57:53.491Z,13.75
2022-10-21T12:00:25.262Z,13.73
2022-10-21T12:03:17.682Z,13.81
2022-10-21T12:05:55.662Z,13.81
2022-10-21T12:08:28.871Z,13.90
2022-10-21T12:11:01.659Z,13.97
2022-10-21T12:13:34.678Z,14.07
2022-10-21T12:16:07.929Z,14.16
2022-10-21T12:18:43.983Z,14.23
2022-10-21T12:21:19.173Z,14.21
2022-10-21T12:23:51.995Z,14.10
2022-10-21T12:26:25.928Z,14.19
2022-10-21T12:29:04.163Z,14.10
2022-10-21T12:31:41.074Z,14.05
2022-10-21T12:34:12.046Z,13.93
2022-10-21T12:36:47.232Z,13.84
2022-10-21T12:39:39.606Z,13.44
2022-10-21T12:42:14.005Z,13.38
2022-10-21T12:44:47.311Z,13.70
2022-10-21T12:47:32.384Z,13.38
2022-10-21T12:50:26.341Z,13.45
2022-10-21T12:53:22.162Z,13.60
2022-10-21T12:55:53.344Z,13.59
2022-10-21T12:58:32.019Z,13.59
2022-10-21T13:01:03.573Z,13.61
2022-10-21T13:03:55.150Z,13.49
2022-10-21T13:06:57.701Z,13.65
2022-10-21T13:09:37.806Z,13.69
2022-10-21T13:12:17.114Z,13.77
2022-10-21T13:14:47.875Z,13.78
2022-10-21T13:17:49.754Z,13.81
2022-10-21T13:20:46.956Z,13.83
2022-10-21T13:23:34.216Z,13.77
2022-10-21T13:26:15.820Z,13.81
2022-10-21T13:28:57.025Z,13.80
2022-10-21T13:31:25.620Z,13.80
2022-10-21T13:33:56.830Z,13.74
2022-10-21T13:39:21.726Z,13.63
2022-10-21T13:41:59.199Z,13.69
2022-10-21T13:44:32.344Z,13.69
2022-10-21T13:47:18.721Z,13.63
2022-10-21T13:49:53.388Z,13.57
2022-10-21T13:52:21.788Z,13.07
2022-10-21T13:54:59.334Z,13.57
2022-10-21T13:57:31.038Z,13.53
2022-10-21T14:00:03.398Z,13.49
2022-10-21T14:02:31.815Z,13.60
2022-10-21T14:05:01.961Z,13.55
2022-10-21T14:07:30.612Z,13.52
2022-10-21T14:10:00.098Z,13.59
2022-10-21T14:12:33.367Z,13.54
2022-10-21T14:15:07.959Z,13.33
2022-10-21T14:17:41.091Z,13.56
2022-10-21T14:20:17.616Z,13.52
2022-10-21T14:22:51.426Z,13.57
2022-10-21T14:25:20.590Z,13.55
2022-10-21T14:27:49.603Z,13.58
2022-10-21T14:30:21.486Z,13.54
2022-10-21T14:32:51.960Z,13.49
2022-10-21T14:35:28.051Z,13.56
2022-10-21T14:37:57.975Z,13.55
2022-10-21T14:40:32.160Z,13.43
2022-10-21T14:43:03.313Z,13.44
2022-10-21T14:45:34.341Z,13.16
2022-10-21T14:48:10.485Z,13.40
2022-10-21T14:50:42.696Z,13.38
2022-10-21T14:53:18.252Z,13.09
2022-10-21T14:55:49.453Z,13.33
2022-10-21T14:58:23.936Z,13.32
2022-10-21T15:00:57.533Z,13.26
2022-10-21T15:03:39.665Z,13.28
2022-10-21T15:06:16.488Z,13.28
2022-10-21T15:08:58.673Z,13.34
2022-10-21T15:11:42.127Z,13.28
2022-10-21T15:14:35.383Z,13.22
2022-10-21T15:17:10.007Z,13.12
2022-10-21T15:19:48.314Z,12.86
2022-10-21T15:22:25.748Z,13.19
2022-10-21T15:24:55.874Z,13.20
2022-10-21T15:27:29.364Z,13.05
2022-10-21T15:29:57.934Z,12.84
2022-10-21T15:32:30.322Z,13.19
2022-10-21T15:35:00.296Z,13.25
2022-10-21T15:37:30.311Z,13.04
2022-10-21T15:39:59.111Z,13.13
2022-10-21T15:42:27.471Z,13.12
2022-10-21T15:44:58.732Z,13.15
2022-10-21T15:47:27.227Z,13.22
2022-10-21T15:49:56.460Z,13.12
2022-10-21T15:52:25.087Z,13.12
2022-10-21T15:54:55.428Z,13.07
2022-10-21T15:57:24.656Z,13.04
2022-10-21T15:59:52.975Z,13.03
2022-10-21T16:02:21.306Z,13.00
2022-10-21T16:04:53.099Z,12.94
2022-10-21T16:07:24.211Z,12.90
2022-10-21T16:09:52.769Z,12.89
2022-10-21T16:12:23.485Z,12.88
2022-10-21T16:14:51.919Z,12.86
2022-10-21T16:17:20.793Z,12.44
2022-10-21T16:19:49.256Z,12.84
2022-10-21T16:22:22.411Z,12.91
2022-10-21T16:24:50.982Z,12.81
2022-10-21T16:27:31.355Z,12.77
2022-10-21T16:30:17.598Z,12.83
2022-10-21T16:32:45.976Z,12.78
2022-10-21T16:35:15.520Z,12.79
2022-10-21T16:37:44.686Z,12.81
2022-10-21T16:40:19.633Z,12.87
2022-10-21T16:42:48.189Z,12.80
2022-10-21T16:45:19.405Z,12.78
2022-10-21T16:47:52.969Z,12.73
2022-10-21T16:50:24.096Z,12.65
2022-10-21T16:52:52.951Z,12.72
2022-10-21T16:55:21.904Z,12.70
2022-10-21T16:57:50.351Z,12.75
2022-10-21T17:00:20.555Z,12.59
2022-10-21T17:02:51.526Z,12.67
2022-10-21T17:05:20.059Z,12.74
2022-10-21T17:07:48.790Z,12.72
2022-10-21T17:10:17.781Z,12.45
2022-10-21T17:12:46.231Z,12.42
2022-10-21T17:15:16.972Z,12.73
2022-10-21T17:17:47.010Z,11.63
2022-10-21T17:20:15.602Z,12.75
2022-10-21T17:22:44.131Z,12.81
2022-10-21T17:25:13.426Z,12.83
2022-10-21T17:27:42.260Z,12.43
2022-10-21T17:30:12.641Z,12.79
2022-10-21T17:35:18.805Z,12.75
2022-10-21T17:37:48.113Z,12.75
2022-10-21T17:40:19.222Z,12.74
2022-10-21T17:42:48.199Z,12.82
2022-10-21T17:45:17.858Z,12.82
2022-10-21T17:47:46.769Z,12.80
2022-10-21T17:50:18.646Z,12.73
2022-10-21T17:52:47.046Z,12.79
2022-10-21T17:55:15.479Z,12.76
2022-10-21T17:57:44.052Z,12.61
2022-10-21T18:00:14.062Z,12.67
2022-10-21T18:02:42.822Z,12.75
2022-10-21T18:05:11.690Z,12.75
2022-10-21T18:07:41.652Z,12.75
2022-10-21T18:10:10.811Z,12.77
2022-10-21T18:12:39.587Z,12.50
2022-10-21T18:15:09.068Z,12.76
2022-10-21T18:17:40.081Z,12.78
2022-10-21T18:20:10.423Z,12.79
2022-10-21T18:22:40.698Z,12.79
2022-10-21T18:25:10.062Z,12.80
2022-10-21T18:27:40.403Z,12.83
2022-10-21T18:30:09.860Z,12.88
2022-10-21T18:32:39.240Z,12.86
2022-10-21T18:35:10.612Z,12.58
2022-10-21T18:37:41.889Z,12.74
2022-10-21T18:40:12.009Z,12.91
2022-10-21T18:42:41.215Z,12.89
2022-10-21T18:45:10.760Z,12.92
2022-10-21T18:47:41.212Z,12.96
2022-10-21T18:50:11.102Z,12.93
2022-10-21T18:52:41.339Z,12.93
2022-10-21T18:55:10.840Z,12.97
2022-10-21T18:57:40.084Z,12.95
2022-10-21T19:00:10.615Z,13.01
2022-10-21T19:02:39.281Z,12.83
2022-10-21T19:05:08.359Z,13.02
2022-10-21T19:07:38.241Z,13.05
2022-10-21T19:10:09.504Z,13.05
2022-10-21T19:12:38.616Z,13.15
2022-10-21T19:15:08.457Z,13.08
2022-10-21T19:17:36.981Z,13.10
2022-10-21T19:20:06.069Z,13.21
2022-10-21T19:22:34.561Z,13.13
2022-10-21T19:25:03.099Z,13.09
2022-10-21T19:27:34.676Z,12.96
2022-10-21T19:30:03.347Z,13.08
2022-10-21T19:32:31.753Z,13.03
2022-10-21T19:35:00.143Z,13.11
2022-10-21T19:37:29.177Z,13.05
2022-10-21T19:39:58.253Z,12.97
2022-10-21T19:42:28.336Z,13.05
2022-10-21T19:45:00.003Z,13.12
2022-10-21T19:47:31.402Z,13.09
2022-10-21T19:50:00.427Z,13.04
2022-10-21T19:52:29.595Z,13.06
2022-10-21T19:54:58.146Z,13.04
2022-10-21T19:57:27.095Z,13.07
2022-10-21T19:59:56.054Z,13.14
2022-10-21T20:02:26.538Z,13.25
2022-10-21T20:04:54.991Z,13.21
2022-10-21T20:07:23.350Z,12.99
2022-10-21T20:09:53.354Z,13.11
2022-10-21T20:12:21.867Z,13.15
2022-10-21T20:14:50.477Z,13.16
2022-10-21T20:17:19.045Z,13.16
2022-10-21T20:19:52.266Z,13.05
2022-10-21T20:22:20.917Z,13.14
2022-10-21T20:24:53.097Z,13.16
2022-10-21T20:27:22.270Z,12.93
2022-10-21T20:29:51.270Z,13.20
2022-10-21T20:32:20.475Z,13.11
2022-10-21T20:34:50.352Z,13.00
2022-10-21T20:37:19.506Z,12.99
2022-10-21T20:39:48.275Z,13.14
2022-10-21T20:42:16.667Z,13.19
2022-10-21T20:47:14.432Z,13.10
2022-10-21T20:49:42.816Z,13.22
2022-10-21T20:52:12.696Z,13.22
2022-10-21T20:54:41.662Z,12.04
2022-10-21T20:57:10.112Z,12.70
2022-10-21T20:59:38.699Z,13.28
2022-10-21T21:02:08.160Z,12.80
2022-10-21T21:04:36.781Z,13.33
2022-10-21T21:07:05.148Z,13.40
2022-10-21T21:10:01.132Z,12.58
2022-10-21T21:12:23.724Z,13.10
2022-10-21T21:14:53.035Z,13.35
2022-10-21T21:17:22.251Z,13.40
2022-10-21T21:19:51.631Z,13.25
2022-10-21T21:22:21.527Z,13.41
2022-10-21T21:24:52.308Z,13.38
2022-10-21T21:27:20.872Z,13.42
2022-10-21T21:29:49.311Z,13.40
2022-10-21T21:32:19.131Z,13.44
2022-10-21T21:34:54.531Z,13.37
2022-10-21T21:37:23.519Z,13.39
2022-10-21T21:39:54.550Z,13.13
2022-10-21T21:42:23.278Z,13.45
2022-10-21T21:44:51.727Z,13.40
2022-10-21T21:47:20.303Z,13.37
2022-10-21T21:49:48.935Z,13.45
2022-10-21T21:52:17.452Z,13.35
2022-10-21T21:54:45.815Z,13.18
2022-10-21T21:57:27.187Z,13.30
2022-10-21T21:59:55.917Z,13.29
2022-10-21T22:02:24.555Z,13.30
2022-10-21T22:04:52.815Z,13.32
2022-10-21T22:07:21.235Z,13.34
2022-10-21T22:09:49.566Z,13.29
2022-10-21T22:12:22.954Z,13.40
2022-10-21T22:14:51.332Z,13.22
2022-10-21T22:17:19.984Z,13.22
2022-10-21T22:19:51.684Z,13.05
2022-10-21T22:22:21.819Z,13.05
2022-10-21T22:24:50.396Z,12.75
2022-10-21T22:27:20.484Z,13.17
2022-10-21T22:29:49.045Z,12.98
2022-10-21T22:32:18.071Z,13.19
2022-10-21T22:34:46.959Z,12.99
2022-10-21T22:37:15.695Z,13.21
2022-10-21T22:39:44.132Z,13.19
2022-10-21T22:42:12.567Z,12.87
2022-10-21T22:44:42.539Z,12.73
2022-10-21T22:47:10.860Z,13.19
2022-10-21T22:49:39.386Z,13.19
2022-10-21T22:52:08.160Z,13.18
2022-10-21T22:54:49.226Z,13.18
2022-10-21T22:57:18.191Z,13.13
2022-10-21T22:59:52.847Z,13.16
2022-10-21T23:02:21.602Z,13.03
2022-10-21T23:04:50.276Z,13.17
2022-10-21T23:07:18.619Z,13.20
2022-10-21T23:09:47.494Z,13.20
2022-10-21T23:12:16.132Z,13.15
2022-10-21T23:14:44.543Z,13.16
2022-10-21T23:17:14.498Z,13.34
2022-10-21T23:19:42.927Z,12.34
2022-10-21T23:22:12.139Z,13.22
2022-10-21T23:24:40.541Z,13.17
2022-10-21T23:27:08.978Z,13.18
2022-10-21T23:29:37.474Z,13.20
2022-10-21T23:32:06.274Z,13.23
2022-10-21T23:34:36.085Z,13.21
2022-10-21T23:37:04.638Z,13.22
2022-10-21T23:39:33.155Z,13.25
2022-10-21T23:42:01.572Z,13.25
2022-10-21T23:44:30.263Z,12.91
2022-10-21T23:46:58.969Z,13.27
2022-10-21T23:49:27.802Z,13.26
2022-10-21T23:51:58.389Z,13.12
2022-10-21T23:54:26.803Z,13.51
2022-10-21T23:56:55.280Z,13.40
2022-10-21T23:59:23.714Z,13.31
